createdAt,value
2023-07-30T00:01:43.787Z,16.70
2023-07-30T00:04:16.797Z,16.70
2023-07-30T00:06:50.211Z,16.70
2023-07-30T00:09:23.308Z,16.70
2023-07-30T00:11:56.395Z,16.70
2023-07-30T00:14:29.377Z,16.70
2023-07-30T00:17:02.784Z,16.70
2023-07-30T00:19:36.823Z,16.62
2023-07-30T00:22:10.507Z,16.62
2023-07-30T00:24:43.530Z,16.60
2023-07-30T00:27:16.692Z,16.66
2023-07-30T00:29:49.741Z,16.70
2023-07-30T00:32:22.770Z,16.70
2023-07-30T00:34:56.590Z,16.70
2023-07-30T00:37:29.898Z,16.70
2023-07-30T00:40:04.298Z,16.70
2023-07-30T00:42:37.278Z,16.70
2023-07-30T00:45:13.124Z,16.70
2023-07-30T00:47:46.546Z,16.70
2023-07-30T00:50:20.515Z,16.70
2023-07-30T00:52:53.758Z,16.70
2023-07-30T00:55:27.092Z,16.70
2023-07-30T00:58:00.944Z,16.70
2023-07-30T01:00:34.396Z,16.70
2023-07-30T01:03:07.807Z,16.70
2023-07-30T01:05:40.992Z,16.70
2023-07-30T01:08:15.694Z,16.70
2023-07-30T01:10:50.453Z,16.60
2023-07-30T01:13:24.123Z,16.60
2023-07-30T01:15:57.180Z,16.60
2023-07-30T01:18:30.319Z,16.52
2023-07-30T01:21:05.033Z,16.50
2023-07-30T01:23:38.214Z,16.50
2023-07-30T01:26:21.544Z,16.40
2023-07-30T01:29:00.652Z,16.40
2023-07-30T01:31:36.724Z,16.40
2023-07-30T01:34:12.350Z,16.34
2023-07-30T01:36:45.962Z,16.30
2023-07-30T01:39:20.309Z,16.30
2023-07-30T01:41:55.419Z,16.30
2023-07-30T01:44:28.473Z,16.30
2023-07-30T01:47:01.481Z,16.30
2023-07-30T01:49:34.704Z,16.30
2023-07-30T01:52:08.627Z,16.30
2023-07-30T01:54:41.553Z,16.30
2023-07-30T01:57:15.327Z,16.30
2023-07-30T01:59:48.512Z,16.30
2023-07-30T02:02:21.652Z,16.30
2023-07-30T02:04:54.878Z,16.36
2023-07-30T02:07:28.046Z,16.36
2023-07-30T02:10:01.990Z,16.38
2023-07-30T02:12:35.171Z,16.36
2023-07-30T02:15:10.986Z,16.30
2023-07-30T02:17:44.223Z,16.30
2023-07-30T02:20:17.881Z,16.30
2023-07-30T02:22:51.106Z,16.30
2023-07-30T02:25:24.301Z,16.30
2023-07-30T02:27:57.460Z,16.30
2023-07-30T02:30:30.740Z,16.30
2023-07-30T02:33:03.914Z,16.20
2023-07-30T02:35:37.015Z,16.20
2023-07-30T02:38:10.184Z,16.10
2023-07-30T02:40:43.351Z,16.10
2023-07-30T02:43:16.905Z,16.10
2023-07-30T02:45:52.482Z,16.06
2023-07-30T02:48:25.766Z,16.00
2023-07-30T02:50:58.964Z,16.00
2023-07-30T02:53:32.170Z,16.00
2023-07-30T02:56:05.473Z,16.00
2023-07-30T02:58:38.521Z,16.00
2023-07-30T03:01:14.734Z,16.00
2023-07-30T03:03:47.902Z,16.00
2023-07-30T03:06:20.994Z,16.04
2023-07-30T03:08:54.021Z,16.10
2023-07-30T03:11:27.652Z,16.10
2023-07-30T03:14:00.667Z,16.18
2023-07-30T03:16:34.323Z,16.20
2023-07-30T03:19:07.443Z,16.20
2023-07-30T03:21:40.615Z,16.20
2023-07-30T03:24:13.651Z,16.28
2023-07-30T03:26:46.657Z,16.30
2023-07-30T03:29:19.927Z,16.30
2023-07-30T03:31:52.966Z,16.30
2023-07-30T03:34:26.313Z,16.30
2023-07-30T03:37:01.757Z,16.20
2023-07-30T03:39:34.977Z,16.20
2023-07-30T03:42:08.861Z,16.10
2023-07-30T03:44:42.014Z,16.10
2023-07-30T03:47:15.203Z,16.06
2023-07-30T03:49:48.344Z,16.02
2023-07-30T03:52:24.310Z,16.00
2023-07-30T03:54:57.245Z,16.00
2023-07-30T03:57:32.379Z,16.00
2023-07-30T04:00:07.626Z,16.00
2023-07-30T04:02:47.318Z,16.10
2023-07-30T04:05:20.434Z,16.10
2023-07-30T04:07:54.155Z,16.14
2023-07-30T04:10:27.654Z,16.20
2023-07-30T04:13:00.794Z,16.20
2023-07-30T04:15:33.844Z,16.20
2023-07-30T04:18:07.073Z,16.20
2023-07-30T04:20:40.351Z,16.20
2023-07-30T04:23:14.460Z,16.28
2023-07-30T04:25:48.184Z,16.30
2023-07-30T04:28:21.277Z,16.30
2023-07-30T04:30:54.261Z,16.30
2023-07-30T04:33:27.887Z,16.40
2023-07-30T04:36:01.095Z,16.42
2023-07-30T04:38:34.325Z,16.50
2023-07-30T04:41:07.683Z,16.70
2023-07-30T04:43:46.122Z,16.96
2023-07-30T04:46:19.529Z,17.10
2023-07-30T04:48:52.699Z,17.20
2023-07-30T04:51:27.181Z,17.36
2023-07-30T04:54:00.166Z,17.50
2023-07-30T04:56:33.318Z,17.60
2023-07-30T04:59:06.524Z,17.76
2023-07-30T05:01:39.891Z,17.90
2023-07-30T05:04:13.243Z,18.00
2023-07-30T05:06:46.200Z,18.20
2023-07-30T05:09:19.149Z,18.30
2023-07-30T05:11:52.237Z,18.46
2023-07-30T05:14:25.342Z,18.60
2023-07-30T05:16:58.378Z,18.80
2023-07-30T05:19:31.662Z,18.90
2023-07-30T05:22:04.724Z,19.02
2023-07-30T05:24:38.353Z,19.20
2023-07-30T05:27:11.956Z,19.30
2023-07-30T05:29:47.513Z,19.40
2023-07-30T05:32:22.020Z,19.50
2023-07-30T05:34:55.033Z,19.70
2023-07-30T05:37:28.115Z,19.80
2023-07-30T05:40:01.295Z,19.90
2023-07-30T05:42:35.462Z,20.08
2023-07-30T05:45:10.580Z,20.20
2023-07-30T05:47:43.725Z,20.32
2023-07-30T05:50:17.081Z,20.40
2023-07-30T05:52:50.084Z,20.50
2023-07-30T05:55:23.210Z,20.60
2023-07-30T05:57:56.719Z,20.60
2023-07-30T06:00:29.853Z,20.70
2023-07-30T06:03:04.676Z,20.70
2023-07-30T06:05:43.312Z,20.80
2023-07-30T06:08:16.241Z,20.90
2023-07-30T06:10:49.362Z,21.00
2023-07-30T06:13:22.349Z,21.08
2023-07-30T06:15:55.433Z,21.10
2023-07-30T06:18:28.522Z,21.20
2023-07-30T06:21:01.513Z,21.26
2023-07-30T06:23:34.689Z,21.30
2023-07-30T06:26:07.839Z,21.22
2023-07-30T06:28:40.903Z,21.20
2023-07-30T06:31:13.877Z,21.30
2023-07-30T06:33:46.969Z,21.30
2023-07-30T06:36:19.911Z,21.40
2023-07-30T06:38:52.988Z,21.50
2023-07-30T06:41:26.270Z,21.56
2023-07-30T06:43:59.249Z,21.64
2023-07-30T06:46:32.331Z,21.70
2023-07-30T06:49:05.491Z,21.80
2023-07-30T06:51:38.701Z,21.80
2023-07-30T06:54:11.991Z,21.90
2023-07-30T06:56:45.078Z,22.00
2023-07-30T06:59:18.062Z,22.10
2023-07-30T07:01:51.034Z,22.20
2023-07-30T07:04:24.473Z,22.20
2023-07-30T07:06:57.400Z,22.30
2023-07-30T07:09:30.396Z,22.40
2023-07-30T07:12:04.485Z,22.40
2023-07-30T07:14:37.688Z,22.50
2023-07-30T07:17:11.086Z,22.60
2023-07-30T07:19:44.756Z,22.74
2023-07-30T07:22:18.958Z,22.90
2023-07-30T07:24:53.861Z,23.10
2023-07-30T07:27:27.013Z,23.20
2023-07-30T07:30:00.723Z,23.40
2023-07-30T07:32:39.556Z,23.50
2023-07-30T07:35:13.789Z,23.70
2023-07-30T07:37:46.672Z,23.70
2023-07-30T07:40:20.251Z,23.80
2023-07-30T07:42:53.223Z,23.90
2023-07-30T07:45:26.465Z,24.10
2023-07-30T07:47:59.604Z,24.20
2023-07-30T07:50:32.666Z,24.20
2023-07-30T07:53:05.968Z,24.30
2023-07-30T07:55:38.966Z,24.40
2023-07-30T07:58:11.888Z,24.60
2023-07-30T08:00:44.979Z,24.80
2023-07-30T08:03:18.151Z,25.04
2023-07-30T08:05:51.818Z,25.30
2023-07-30T08:08:26.936Z,25.46
2023-07-30T08:11:00.135Z,25.50
2023-07-30T08:13:33.128Z,25.50
2023-07-30T08:16:06.480Z,25.54
2023-07-30T08:18:39.564Z,25.66
2023-07-30T08:21:13.019Z,25.80
2023-07-30T08:23:46.174Z,25.90
2023-07-30T08:26:19.138Z,25.90
2023-07-30T08:28:52.286Z,25.90
2023-07-30T08:31:25.490Z,26.00
2023-07-30T08:33:59.009Z,26.10
2023-07-30T08:36:31.969Z,26.20
2023-07-30T08:39:05.947Z,26.20
2023-07-30T08:41:39.325Z,26.40
2023-07-30T08:44:13.403Z,26.50
2023-07-30T08:46:46.749Z,26.58
2023-07-30T08:49:19.760Z,26.84
2023-07-30T08:51:56.622Z,27.28
2023-07-30T08:54:32.684Z,27.60
2023-07-30T08:57:06.339Z,27.80
2023-07-30T08:59:43.375Z,28.10
2023-07-30T09:02:27.266Z,28.30
2023-07-30T09:05:05.094Z,28.50
2023-07-30T09:07:38.115Z,28.70
2023-07-30T09:10:12.642Z,28.84
2023-07-30T09:12:47.921Z,29.08
2023-07-30T09:15:22.436Z,29.20
2023-07-30T09:18:00.511Z,29.36
2023-07-30T09:20:40.976Z,29.56
2023-07-30T09:23:14.670Z,29.92
2023-07-30T09:25:51.786Z,30.10
2023-07-30T09:28:33.009Z,30.10
2023-07-30T09:31:22.045Z,30.18
2023-07-30T09:33:58.189Z,30.40
2023-07-30T09:36:31.213Z,30.24
2023-07-30T09:39:05.199Z,30.00
2023-07-30T09:41:38.497Z,29.80
2023-07-30T09:44:12.163Z,29.52
2023-07-30T09:46:51.988Z,29.66
2023-07-30T09:49:26.745Z,30.12
2023-07-30T09:52:00.680Z,30.62
2023-07-30T09:54:35.179Z,30.90
2023-07-30T09:57:09.301Z,31.36
2023-07-30T09:59:42.360Z,31.82
2023-07-30T10:02:16.370Z,32.20
2023-07-30T10:04:53.486Z,32.40
2023-07-30T10:07:30.744Z,32.60
2023-07-30T10:10:06.866Z,32.96
2023-07-30T10:12:42.704Z,33.44
2023-07-30T10:15:15.926Z,33.70
2023-07-30T10:17:49.777Z,33.40
2023-07-30T10:20:31.305Z,32.82
2023-07-30T10:23:06.668Z,32.38
2023-07-30T10:25:51.203Z,31.70
2023-07-30T10:28:40.360Z,30.92
2023-07-30T10:31:14.822Z,30.20
2023-07-30T10:33:54.820Z,29.80
2023-07-30T10:36:39.324Z,29.48
2023-07-30T10:39:21.015Z,29.10
2023-07-30T10:41:56.953Z,28.78
2023-07-30T10:44:33.515Z,28.40
2023-07-30T10:47:07.347Z,28.00
2023-07-30T10:49:45.138Z,27.62
2023-07-30T10:52:18.637Z,27.28
2023-07-30T10:54:51.704Z,26.84
2023-07-30T10:57:24.948Z,26.06
2023-07-30T10:59:58.999Z,25.42
2023-07-30T11:02:33.352Z,25.00
2023-07-30T11:05:18.367Z,24.80
2023-07-30T11:07:57.760Z,24.80
2023-07-30T11:10:30.832Z,25.20
2023-07-30T11:13:04.414Z,25.50
2023-07-30T11:15:42.522Z,26.30
2023-07-30T11:18:16.960Z,27.18
2023-07-30T11:20:51.320Z,27.90
2023-07-30T11:23:26.221Z,28.68
2023-07-30T11:25:59.341Z,30.34
2023-07-30T11:28:38.576Z,31.26
2023-07-30T11:31:14.008Z,31.20
2023-07-30T11:33:48.691Z,30.72
2023-07-30T11:36:26.170Z,30.34
2023-07-30T11:38:59.304Z,30.42
2023-07-30T11:41:32.676Z,31.02
2023-07-30T11:44:06.176Z,31.50
2023-07-30T11:46:39.395Z,31.30
2023-07-30T11:49:20.304Z,30.66
2023-07-30T11:51:53.289Z,29.94
2023-07-30T11:54:26.669Z,29.28
2023-07-30T11:57:01.346Z,28.66
2023-07-30T11:59:37.412Z,28.08
2023-07-30T12:02:11.451Z,27.50
2023-07-30T12:05:02.036Z,26.96
2023-07-30T12:07:44.258Z,26.50
2023-07-30T12:10:21.049Z,26.14
2023-07-30T12:12:56.415Z,25.78
2023-07-30T12:15:31.706Z,25.40
2023-07-30T12:18:05.179Z,25.08
2023-07-30T12:20:38.354Z,24.76
2023-07-30T12:23:11.445Z,24.50
2023-07-30T12:25:44.523Z,24.22
2023-07-30T12:28:17.855Z,24.10
2023-07-30T12:30:50.943Z,24.00
2023-07-30T12:33:23.938Z,24.10
2023-07-30T12:35:56.872Z,24.30
2023-07-30T12:38:29.924Z,24.54
2023-07-30T12:41:03.041Z,25.20
2023-07-30T12:43:36.362Z,25.78
2023-07-30T12:46:09.789Z,26.00
2023-07-30T12:48:44.670Z,26.00
2023-07-30T12:51:17.973Z,26.00
2023-07-30T12:53:50.964Z,26.34
2023-07-30T12:56:24.028Z,26.80
2023-07-30T12:58:57.127Z,26.80
2023-07-30T13:01:30.186Z,26.70
2023-07-30T13:04:03.374Z,26.70
2023-07-30T13:06:36.379Z,27.30
2023-07-30T13:09:10.996Z,27.90
2023-07-30T13:11:44.062Z,27.90
2023-07-30T13:14:17.124Z,27.72
2023-07-30T13:16:50.234Z,27.60
2023-07-30T13:19:23.230Z,27.60
2023-07-30T13:21:56.174Z,27.60
2023-07-30T13:24:31.023Z,27.60
2023-07-30T13:27:04.062Z,28.04
2023-07-30T13:29:37.225Z,29.40
2023-07-30T13:32:11.507Z,31.26
2023-07-30T13:34:45.666Z,32.72
2023-07-30T13:37:18.771Z,33.90
2023-07-30T13:39:51.861Z,34.92
2023-07-30T13:42:24.886Z,35.92
2023-07-30T13:44:58.236Z,36.42
2023-07-30T13:47:31.349Z,36.94
2023-07-30T13:50:04.492Z,37.40
2023-07-30T13:52:37.769Z,38.12
2023-07-30T13:55:12.315Z,38.64
2023-07-30T13:57:45.818Z,39.14
2023-07-30T14:00:19.752Z,39.54
2023-07-30T14:02:52.957Z,39.40
2023-07-30T14:05:26.413Z,38.88
2023-07-30T14:07:59.579Z,38.70
2023-07-30T14:10:32.607Z,39.24
2023-07-30T14:13:05.677Z,39.70
2023-07-30T14:15:38.864Z,40.18
2023-07-30T14:18:13.193Z,40.50
2023-07-30T14:20:46.569Z,40.50
2023-07-30T14:23:19.661Z,40.38
2023-07-30T14:25:52.629Z,39.98
2023-07-30T14:28:25.932Z,39.66
2023-07-30T14:30:59.481Z,38.48
2023-07-30T14:33:32.597Z,36.98
2023-07-30T14:36:05.891Z,35.30
2023-07-30T14:38:39.801Z,33.48
2023-07-30T14:41:12.890Z,32.14
2023-07-30T14:43:45.817Z,31.16
2023-07-30T14:46:18.914Z,30.24
2023-07-30T14:48:52.001Z,29.44
2023-07-30T14:51:25.089Z,28.76
2023-07-30T14:53:58.171Z,28.12
2023-07-30T14:56:31.257Z,27.60
2023-07-30T14:59:04.462Z,27.14
2023-07-30T15:01:37.752Z,26.80
2023-07-30T15:04:11.298Z,26.50
2023-07-30T15:06:44.166Z,26.20
2023-07-30T15:09:17.455Z,25.98
2023-07-30T15:11:50.548Z,25.70
2023-07-30T15:14:23.892Z,25.40
2023-07-30T15:16:57.942Z,25.00
2023-07-30T15:19:31.022Z,24.64
2023-07-30T15:22:04.308Z,24.14
2023-07-30T15:24:39.578Z,23.70
2023-07-30T15:27:13.172Z,23.30
2023-07-30T15:29:47.736Z,22.96
2023-07-30T15:32:21.044Z,22.52
2023-07-30T15:34:54.131Z,22.10
2023-07-30T15:37:27.454Z,21.60
2023-07-30T15:40:00.511Z,21.20
2023-07-30T15:42:33.627Z,20.82
2023-07-30T15:45:07.928Z,20.60
2023-07-30T15:47:42.290Z,20.34
2023-07-30T15:50:15.706Z,20.20
2023-07-30T15:52:48.892Z,20.10
2023-07-30T15:55:22.813Z,20.00
2023-07-30T15:57:55.800Z,20.00
2023-07-30T16:00:30.607Z,19.90
2023-07-30T16:03:07.280Z,19.90
2023-07-30T16:05:40.481Z,19.88
2023-07-30T16:08:13.538Z,19.88
2023-07-30T16:10:46.930Z,19.90
2023-07-30T16:13:20.054Z,19.90
2023-07-30T16:15:53.444Z,19.98
2023-07-30T16:18:26.483Z,20.00
2023-07-30T16:21:07.924Z,20.14
2023-07-30T16:23:41.376Z,20.30
2023-07-30T16:26:14.635Z,20.40
2023-07-30T16:28:48.185Z,20.50
2023-07-30T16:31:21.300Z,20.60
2023-07-30T16:33:54.490Z,20.60
2023-07-30T16:36:27.747Z,20.60
2023-07-30T16:39:01.936Z,20.60
2023-07-30T16:41:34.925Z,20.60
2023-07-30T16:44:08.224Z,20.60
2023-07-30T16:46:41.806Z,20.60
2023-07-30T16:49:15.238Z,20.60
2023-07-30T16:51:48.356Z,20.62
2023-07-30T16:54:21.368Z,20.70
2023-07-30T16:56:54.370Z,20.80
2023-07-30T16:59:27.717Z,20.96
2023-07-30T17:02:01.491Z,21.10
2023-07-30T17:04:34.587Z,21.18
2023-07-30T17:07:08.223Z,21.20
2023-07-30T17:09:41.309Z,21.20
2023-07-30T17:12:14.624Z,21.10
2023-07-30T17:14:47.576Z,21.00
2023-07-30T17:17:20.603Z,20.90
2023-07-30T17:19:55.204Z,20.80
2023-07-30T17:22:28.292Z,20.70
2023-07-30T17:25:02.093Z,20.66
2023-07-30T17:27:36.723Z,20.60
2023-07-30T17:30:11.343Z,20.50
2023-07-30T17:32:44.683Z,20.40
2023-07-30T17:35:17.790Z,20.30
2023-07-30T17:37:50.839Z,20.26
2023-07-30T17:40:24.326Z,20.20
2023-07-30T17:42:58.894Z,20.18
2023-07-30T17:45:32.379Z,20.10
2023-07-30T17:48:05.844Z,20.10
2023-07-30T17:50:40.587Z,20.10
2023-07-30T17:53:13.762Z,20.00
2023-07-30T17:55:51.492Z,20.00
2023-07-30T17:58:24.875Z,19.90
2023-07-30T18:00:57.855Z,19.90
2023-07-30T18:03:30.912Z,19.90
2023-07-30T18:06:04.554Z,19.90
2023-07-30T18:08:37.727Z,20.00
2023-07-30T18:11:10.827Z,20.00
2023-07-30T18:13:44.010Z,20.00
2023-07-30T18:16:17.138Z,19.90
2023-07-30T18:18:50.241Z,19.90
2023-07-30T18:21:23.478Z,19.90
2023-07-30T18:23:56.938Z,19.90
2023-07-30T18:26:30.018Z,19.80
2023-07-30T18:29:03.390Z,19.76
2023-07-30T18:31:36.735Z,19.70
2023-07-30T18:34:09.999Z,19.60
2023-07-30T18:36:43.470Z,19.50
2023-07-30T18:39:16.661Z,19.50
2023-07-30T18:41:52.100Z,19.50
2023-07-30T18:44:25.217Z,19.50
2023-07-30T18:47:01.945Z,19.50
2023-07-30T18:49:35.075Z,19.40
2023-07-30T18:52:09.593Z,19.40
2023-07-30T18:54:42.997Z,19.40
2023-07-30T18:57:16.463Z,19.30
2023-07-30T18:59:49.539Z,19.20
2023-07-30T19:02:22.719Z,19.20
2023-07-30T19:04:55.960Z,19.16
2023-07-30T19:07:29.354Z,19.10
2023-07-30T19:10:03.121Z,19.10
2023-07-30T19:12:36.270Z,19.10
2023-07-30T19:15:13.493Z,19.10
2023-07-30T19:17:46.661Z,19.10
2023-07-30T19:20:19.960Z,19.10
2023-07-30T19:22:53.101Z,19.10
2023-07-30T19:25:26.136Z,19.10
2023-07-30T19:27:59.211Z,19.10
2023-07-30T19:30:32.394Z,19.10
2023-07-30T19:33:06.331Z,19.10
2023-07-30T19:35:50.036Z,19.10
2023-07-30T19:38:25.946Z,19.00
2023-07-30T19:40:59.399Z,19.00
2023-07-30T19:43:32.896Z,18.90
2023-07-30T19:46:06.480Z,18.90
2023-07-30T19:48:40.037Z,18.90
2023-07-30T19:51:13.925Z,18.90
2023-07-30T19:53:47.330Z,18.80
2023-07-30T19:56:21.942Z,18.70
2023-07-30T19:58:55.109Z,18.60
2023-07-30T20:01:28.397Z,18.42
2023-07-30T20:04:01.582Z,18.34
2023-07-30T20:06:34.799Z,18.30
2023-07-30T20:09:08.033Z,18.20
2023-07-30T20:11:41.159Z,18.10
2023-07-30T20:14:14.198Z,18.10
2023-07-30T20:16:48.135Z,18.00
2023-07-30T20:19:21.282Z,18.00
2023-07-30T20:21:54.571Z,17.90
2023-07-30T20:24:28.773Z,17.90
2023-07-30T20:27:02.259Z,17.80
2023-07-30T20:29:38.747Z,17.80
2023-07-30T20:32:12.899Z,17.74
2023-07-30T20:34:46.477Z,17.70
2023-07-30T20:37:19.610Z,17.70
2023-07-30T20:39:52.914Z,17.70
2023-07-30T20:42:26.339Z,17.64
2023-07-30T20:44:59.641Z,17.60
2023-07-30T20:47:32.585Z,17.60
2023-07-30T20:50:06.254Z,17.60
2023-07-30T20:52:39.486Z,17.52
2023-07-30T20:55:15.009Z,17.50
2023-07-30T20:57:48.607Z,17.50
2023-07-30T21:00:21.739Z,17.50
2023-07-30T21:02:55.054Z,17.50
2023-07-30T21:05:28.136Z,17.50
2023-07-30T21:08:01.232Z,17.50
2023-07-30T21:10:34.374Z,17.50
2023-07-30T21:13:07.488Z,17.60
2023-07-30T21:15:40.598Z,17.60
2023-07-30T21:18:15.000Z,17.60
2023-07-30T21:20:48.409Z,17.60
2023-07-30T21:23:21.421Z,17.60
2023-07-30T21:25:56.901Z,17.60
2023-07-30T21:28:30.117Z,17.60
2023-07-30T21:31:12.583Z,17.60
2023-07-30T21:33:46.180Z,17.60
2023-07-30T21:36:19.294Z,17.60
2023-07-30T21:38:52.483Z,17.60
2023-07-30T21:41:25.882Z,17.52
2023-07-30T21:43:58.978Z,17.50
2023-07-30T21:46:32.053Z,17.50
2023-07-30T21:49:05.242Z,17.50
2023-07-30T21:51:38.430Z,17.50
2023-07-30T21:54:11.511Z,17.50
2023-07-30T21:56:44.574Z,17.50
2023-07-30T21:59:17.702Z,17.48
2023-07-30T22:01:50.729Z,17.40
2023-07-30T22:04:24.070Z,17.40
2023-07-30T22:06:57.219Z,17.40
2023-07-30T22:09:30.254Z,17.40
2023-07-30T22:12:03.831Z,17.32
2023-07-30T22:14:36.955Z,17.30
2023-07-30T22:17:10.560Z,17.30
2023-07-30T22:19:43.525Z,17.30
2023-07-30T22:22:16.729Z,17.30
2023-07-30T22:24:49.876Z,17.30
2023-07-30T22:27:24.014Z,17.30
2023-07-30T22:29:57.607Z,17.30
2023-07-30T22:32:30.676Z,17.20
2023-07-30T22:35:03.933Z,17.20
2023-07-30T22:37:37.108Z,17.20
2023-07-30T22:40:12.328Z,17.20
2023-07-30T22:42:45.529Z,17.14
2023-07-30T22:45:18.693Z,17.10
2023-07-30T22:47:52.272Z,17.10
2023-07-30T22:50:25.804Z,17.10
2023-07-30T22:52:59.375Z,17.02
2023-07-30T22:55:32.319Z,17.00
2023-07-30T22:58:05.806Z,17.00
2023-07-30T23:00:39.083Z,17.00
2023-07-30T23:03:12.837Z,17.00
2023-07-30T23:05:45.949Z,17.00
2023-07-30T23:08:19.085Z,17.00
2023-07-30T23:10:52.091Z,17.00
2023-07-30T23:13:25.171Z,17.00
2023-07-30T23:15:58.313Z,16.98
2023-07-30T23:18:34.863Z,16.92
2023-07-30T23:21:08.015Z,16.90
2023-07-30T23:23:41.093Z,16.90
2023-07-30T23:26:14.197Z,16.90
2023-07-30T23:28:48.134Z,16.90
2023-07-30T23:31:21.263Z,16.90
2023-07-30T23:33:54.302Z,16.90
2023-07-30T23:36:27.314Z,16.90
2023-07-30T23:39:01.185Z,16.90
2023-07-30T23:41:34.230Z,16.90
2023-07-30T23:44:07.489Z,16.90
2023-07-30T23:46:40.846Z,16.90
2023-07-30T23:49:14.195Z,16.86
2023-07-30T23:51:47.155Z,16.80
2023-07-30T23:54:20.178Z,16.80
2023-07-30T23:56:53.247Z,16.80
2023-07-30T23:59:26.401Z,16.80
